sensor_id;sensor_type;location;lat;lon;timestamp;P1;durP1;ratioP1;P2;durP2;ratioP2
323;SDS011;149;51.094;17.002;2022-10-22T00:00:08;15.85;;;14.25;;
323;SDS011;149;51.094;17.002;2022-10-22T00:02:37;18.05;;;15.73;;
323;SDS011;149;51.094;17.002;2022-10-22T00:05:04;19.25;;;14.20;;
323;SDS011;149;51.094;17.002;2022-10-22T00:07:31;20.30;;;15.88;;
323;SDS011;149;51.094;17.002;2022-10-22T00:09:58;21.23;;;15.50;;
323;SDS011;149;51.094;17.002;2022-10-22T00:12:27;16.88;;;14.30;;
323;SDS011;149;51.094;17.002;2022-10-22T00:14:54;21.05;;;14.60;;
323;SDS011;149;51.094;17.002;2022-10-22T00:17:21;16.75;;;14.73;;
323;SDS011;149;51.094;17.002;2022-10-22T00:19:52;18.05;;;14.90;;
323;SDS011;149;51.094;17.002;2022-10-22T00:22:24;20.40;;;15.52;;
323;SDS011;149;51.094;17.002;2022-10-22T00:35:32;15.68;;;13.52;;
323;SDS011;149;51.094;17.002;2022-10-22T00:38:02;14.57;;;13.18;;
323;SDS011;149;51.094;17.002;2022-10-22T00:40:30;15.38;;;12.30;;
323;SDS011;149;51.094;17.002;2022-10-22T00:43:01;14.13;;;11.50;;
323;SDS011;149;51.094;17.002;2022-10-22T00:45:32;12.23;;;10.88;;
323;SDS011;149;51.094;17.002;2022-10-22T00:48:09;17.23;;;12.50;;
323;SDS011;149;51.094;17.002;2022-10-22T00:50:45;16.58;;;12.60;;
323;SDS011;149;51.094;17.002;2022-10-22T00:53:16;15.07;;;12.20;;
323;SDS011;149;51.094;17.002;2022-10-22T00:55:50;15.43;;;12.35;;
323;SDS011;149;51.094;17.002;2022-10-22T00:58:23;15.77;;;12.65;;
323;SDS011;149;51.094;17.002;2022-10-22T01:00:53;18.23;;;12.85;;
323;SDS011;149;51.094;17.002;2022-10-22T01:03:21;15.88;;;13.02;;
323;SDS011;149;51.094;17.002;2022-10-22T01:05:51;16.27;;;11.68;;
323;SDS011;149;51.094;17.002;2022-10-22T01:08:35;16.42;;;13.52;;
323;SDS011;149;51.094;17.002;2022-10-22T01:11:36;18.00;;;14.07;;
323;SDS011;149;51.094;17.002;2022-10-22T01:17:17;16.15;;;11.48;;
323;SDS011;149;51.094;17.002;2022-10-22T01:22:45;15.48;;;12.70;;
323;SDS011;149;51.094;17.002;2022-10-22T01:25:33;17.08;;;13.35;;
323;SDS011;149;51.094;17.002;2022-10-22T01:28:06;13.00;;;11.70;;
323;SDS011;149;51.094;17.002;2022-10-22T01:30:39;13.07;;;11.02;;
323;SDS011;149;51.094;17.002;2022-10-22T01:33:09;17.67;;;12.85;;
323;SDS011;149;51.094;17.002;2022-10-22T01:35:41;19.17;;;11.13;;
323;SDS011;149;51.094;17.002;2022-10-22T01:38:14;13.40;;;10.82;;
323;SDS011;149;51.094;17.002;2022-10-22T01:40:45;13.13;;;11.25;;
323;SDS011;149;51.094;17.002;2022-10-22T01:43:21;13.20;;;11.45;;
323;SDS011;149;51.094;17.002;2022-10-22T01:45:53;14.88;;;12.50;;
323;SDS011;149;51.094;17.002;2022-10-22T01:48:44;19.08;;;11.73;;
323;SDS011;149;51.094;17.002;2022-10-22T01:54:46;12.25;;;11.05;;
323;SDS011;149;51.094;17.002;2022-10-22T01:57:32;12.43;;;11.07;;
323;SDS011;149;51.094;17.002;2022-10-22T02:00:09;14.90;;;12.25;;
323;SDS011;149;51.094;17.002;2022-10-22T02:02:41;13.68;;;11.50;;
323;SDS011;149;51.094;17.002;2022-10-22T02:05:29;14.93;;;11.90;;
323;SDS011;149;51.094;17.002;2022-10-22T02:08:08;14.30;;;10.90;;
323;SDS011;149;51.094;17.002;2022-10-22T02:10:43;14.82;;;11.93;;
323;SDS011;149;51.094;17.002;2022-10-22T02:13:15;13.93;;;11.73;;
323;SDS011;149;51.094;17.002;2022-10-22T02:16:15;14.60;;;11.40;;
323;SDS011;149;51.094;17.002;2022-10-22T02:18:49;14.88;;;11.35;;
323;SDS011;149;51.094;17.002;2022-10-22T02:21:19;14.05;;;12.75;;
323;SDS011;149;51.094;17.002;2022-10-22T02:23:49;16.17;;;12.75;;
323;SDS011;149;51.094;17.002;2022-10-22T02:26:21;16.35;;;11.75;;
323;SDS011;149;51.094;17.002;2022-10-22T02:31:36;12.77;;;11.35;;
323;SDS011;149;51.094;17.002;2022-10-22T02:34:08;14.00;;;12.48;;
323;SDS011;149;51.094;17.002;2022-10-22T02:36:44;15.00;;;11.40;;
323;SDS011;149;51.094;17.002;2022-10-22T02:39:18;17.98;;;12.70;;
323;SDS011;149;51.094;17.002;2022-10-22T02:41:46;16.90;;;13.13;;
323;SDS011;149;51.094;17.002;2022-10-22T02:44:14;16.77;;;12.85;;
323;SDS011;149;51.094;17.002;2022-10-22T02:46:55;16.23;;;12.65;;
323;SDS011;149;51.094;17.002;2022-10-22T02:49:22;13.73;;;12.20;;
323;SDS011;149;51.094;17.002;2022-10-22T02:51:50;14.82;;;13.30;;
323;SDS011;149;51.094;17.002;2022-10-22T02:54:19;13.45;;;12.05;;
323;SDS011;149;51.094;17.002;2022-10-22T02:56:49;13.55;;;11.55;;
323;SDS011;149;51.094;17.002;2022-10-22T02:59:17;16.70;;;12.75;;
323;SDS011;149;51.094;17.002;2022-10-22T03:01:49;15.88;;;12.88;;
323;SDS011;149;51.094;17.002;2022-10-22T03:04:25;15.75;;;13.48;;
323;SDS011;149;51.094;17.002;2022-10-22T03:06:54;14.93;;;11.82;;
323;SDS011;149;51.094;17.002;2022-10-22T03:09:23;14.32;;;12.25;;
323;SDS011;149;51.094;17.002;2022-10-22T03:11:55;12.38;;;11.07;;
323;SDS011;149;51.094;17.002;2022-10-22T03:14:27;14.23;;;11.48;;
323;SDS011;149;51.094;17.002;2022-10-22T03:16:56;16.67;;;13.65;;
323;SDS011;149;51.094;17.002;2022-10-22T03:30:05;16.83;;;11.48;;
323;SDS011;149;51.094;17.002;2022-10-22T03:32:33;13.68;;;11.63;;
323;SDS011;149;51.094;17.002;2022-10-22T03:35:00;16.33;;;11.25;;
323;SDS011;149;51.094;17.002;2022-10-22T03:37:27;13.27;;;11.02;;
323;SDS011;149;51.094;17.002;2022-10-22T03:39:57;16.50;;;12.05;;
323;SDS011;149;51.094;17.002;2022-10-22T03:42:25;14.07;;;10.73;;
323;SDS011;149;51.094;17.002;2022-10-22T03:44:54;12.85;;;11.55;;
323;SDS011;149;51.094;17.002;2022-10-22T03:47:21;15.40;;;12.23;;
323;SDS011;149;51.094;17.002;2022-10-22T03:49:53;16.30;;;11.35;;
323;SDS011;149;51.094;17.002;2022-10-22T03:52:20;12.18;;;10.88;;
323;SDS011;149;51.094;17.002;2022-10-22T03:54:47;15.55;;;12.27;;
323;SDS011;149;51.094;17.002;2022-10-22T03:57:14;15.77;;;12.23;;
323;SDS011;149;51.094;17.002;2022-10-22T04:02:48;16.42;;;12.18;;
323;SDS011;149;51.094;17.002;2022-10-22T04:05:15;17.70;;;13.00;;
323;SDS011;149;51.094;17.002;2022-10-22T04:07:42;15.82;;;11.65;;
323;SDS011;149;51.094;17.002;2022-10-22T04:10:11;18.77;;;14.40;;
323;SDS011;149;51.094;17.002;2022-10-22T04:12:39;13.40;;;11.57;;
323;SDS011;149;51.094;17.002;2022-10-22T04:15:08;14.65;;;12.40;;
323;SDS011;149;51.094;17.002;2022-10-22T04:17:35;17.65;;;13.13;;
323;SDS011;149;51.094;17.002;2022-10-22T04:20:09;20.38;;;12.73;;
323;SDS011;149;51.094;17.002;2022-10-22T04:22:36;17.42;;;13.23;;
323;SDS011;149;51.094;17.002;2022-10-22T04:25:04;19.25;;;13.60;;
323;SDS011;149;51.094;17.002;2022-10-22T04:27:32;15.90;;;11.52;;
323;SDS011;149;51.094;17.002;2022-10-22T04:30:03;20.70;;;11.80;;
323;SDS011;149;51.094;17.002;2022-10-22T04:32:32;15.85;;;13.38;;
323;SDS011;149;51.094;17.002;2022-10-22T04:35:00;13.68;;;11.05;;
323;SDS011;149;51.094;17.002;2022-10-22T04:37:28;14.50;;;12.00;;
323;SDS011;149;51.094;17.002;2022-10-22T04:39:55;15.90;;;11.80;;
323;SDS011;149;51.094;17.002;2022-10-22T04:42:23;19.73;;;13.85;;
323;SDS011;149;51.094;17.002;2022-10-22T04:44:51;19.77;;;13.23;;
323;SDS011;149;51.094;17.002;2022-10-22T04:47:18;17.17;;;12.85;;
323;SDS011;149;51.094;17.002;2022-10-22T04:49:45;17.27;;;12.55;;
323;SDS011;149;51.094;17.002;2022-10-22T04:52:13;20.15;;;12.80;;
323;SDS011;149;51.094;17.002;2022-10-22T04:54:40;17.08;;;13.00;;
323;SDS011;149;51.094;17.002;2022-10-22T04:57:11;16.02;;;10.88;;
323;SDS011;149;51.094;17.002;2022-10-22T04:59:39;15.65;;;12.90;;
323;SDS011;149;51.094;17.002;2022-10-22T05:02:10;12.98;;;11.35;;
323;SDS011;149;51.094;17.002;2022-10-22T05:04:42;17.65;;;13.82;;
323;SDS011;149;51.094;17.002;2022-10-22T05:07:10;13.30;;;11.90;;
323;SDS011;149;51.094;17.002;2022-10-22T05:09:38;18.35;;;14.45;;
323;SDS011;149;51.094;17.002;2022-10-22T05:12:05;24.83;;;14.45;;
323;SDS011;149;51.094;17.002;2022-10-22T05:14:34;17.30;;;12.50;;
323;SDS011;149;51.094;17.002;2022-10-22T05:17:09;19.10;;;14.65;;
323;SDS011;149;51.094;17.002;2022-10-22T05:19:41;16.17;;;12.80;;
323;SDS011;149;51.094;17.002;2022-10-22T05:22:09;24.98;;;13.77;;
323;SDS011;149;51.094;17.002;2022-10-22T05:24:36;19.65;;;14.00;;
323;SDS011;149;51.094;17.002;2022-10-22T05:27:03;14.77;;;12.32;;
323;SDS011;149;51.094;17.002;2022-10-22T05:29:31;19.73;;;14.15;;
323;SDS011;149;51.094;17.002;2022-10-22T05:32:02;18.02;;;15.57;;
323;SDS011;149;51.094;17.002;2022-10-22T05:34:31;19.27;;;13.98;;
323;SDS011;149;51.094;17.002;2022-10-22T05:36:59;21.63;;;13.43;;
323;SDS011;149;51.094;17.002;2022-10-22T05:39:26;17.52;;;13.50;;
323;SDS011;149;51.094;17.002;2022-10-22T05:41:53;18.80;;;12.80;;
323;SDS011;149;51.094;17.002;2022-10-22T05:44:21;14.57;;;13.05;;
323;SDS011;149;51.094;17.002;2022-10-22T05:52:05;13.93;;;12.27;;
323;SDS011;149;51.094;17.002;2022-10-22T05:54:33;17.30;;;12.30;;
323;SDS011;149;51.094;17.002;2022-10-22T05:57:00;20.83;;;12.80;;
323;SDS011;149;51.094;17.002;2022-10-22T05:59:28;19.98;;;12.50;;
323;SDS011;149;51.094;17.002;2022-10-22T06:01:59;15.52;;;11.07;;
323;SDS011;149;51.094;17.002;2022-10-22T06:04:29;19.30;;;11.93;;
323;SDS011;149;51.094;17.002;2022-10-22T06:06:59;16.23;;;11.75;;
323;SDS011;149;51.094;17.002;2022-10-22T06:09:29;13.75;;;10.57;;
323;SDS011;149;51.094;17.002;2022-10-22T06:12:07;17.20;;;12.68;;
323;SDS011;149;51.094;17.002;2022-10-22T06:14:38;16.98;;;11.85;;
323;SDS011;149;51.094;17.002;2022-10-22T06:17:08;18.40;;;10.93;;
323;SDS011;149;51.094;17.002;2022-10-22T06:19:37;12.85;;;10.75;;
323;SDS011;149;51.094;17.002;2022-10-22T06:22:04;13.25;;;10.95;;
323;SDS011;149;51.094;17.002;2022-10-22T06:24:32;11.60;;;9.73;;
323;SDS011;149;51.094;17.002;2022-10-22T06:26:59;18.45;;;9.90;;
323;SDS011;149;51.094;17.002;2022-10-22T06:29:28;10.30;;;9.23;;
323;SDS011;149;51.094;17.002;2022-10-22T06:32:02;13.68;;;11.02;;
323;SDS011;149;51.094;17.002;2022-10-22T06:34:29;14.02;;;11.90;;
323;SDS011;149;51.094;17.002;2022-10-22T06:36:56;15.57;;;10.02;;
323;SDS011;149;51.094;17.002;2022-10-22T06:39:24;11.32;;;9.98;;
323;SDS011;149;51.094;17.002;2022-10-22T06:41:51;14.65;;;11.45;;
323;SDS011;149;51.094;17.002;2022-10-22T06:44:24;13.88;;;10.68;;
323;SDS011;149;51.094;17.002;2022-10-22T06:46:56;15.77;;;10.82;;
323;SDS011;149;51.094;17.002;2022-10-22T06:49:24;17.30;;;11.15;;
323;SDS011;149;51.094;17.002;2022-10-22T06:51:51;15.57;;;10.18;;
323;SDS011;149;51.094;17.002;2022-10-22T06:54:19;14.80;;;12.13;;
323;SDS011;149;51.094;17.002;2022-10-22T06:56:47;14.75;;;11.27;;
323;SDS011;149;51.094;17.002;2022-10-22T06:59:19;17.00;;;10.80;;
323;SDS011;149;51.094;17.002;2022-10-22T07:01:47;18.77;;;11.02;;
323;SDS011;149;51.094;17.002;2022-10-22T07:04:15;16.63;;;12.80;;
323;SDS011;149;51.094;17.002;2022-10-22T07:06:42;16.50;;;12.02;;
323;SDS011;149;51.094;17.002;2022-10-22T07:09:09;19.20;;;13.65;;
323;SDS011;149;51.094;17.002;2022-10-22T07:11:43;15.07;;;11.85;;
323;SDS011;149;51.094;17.002;2022-10-22T07:14:11;21.02;;;13.38;;
323;SDS011;149;51.094;17.002;2022-10-22T07:16:39;20.60;;;14.35;;
323;SDS011;149;51.094;17.002;2022-10-22T07:19:13;16.23;;;13.10;;
323;SDS011;149;51.094;17.002;2022-10-22T07:21:40;24.80;;;14.43;;
323;SDS011;149;51.094;17.002;2022-10-22T07:24:09;20.17;;;14.40;;
323;SDS011;149;51.094;17.002;2022-10-22T07:26:40;20.80;;;13.85;;
323;SDS011;149;51.094;17.002;2022-10-22T07:29:10;22.25;;;13.90;;
323;SDS011;149;51.094;17.002;2022-10-22T07:31:36;27.23;;;18.75;;
323;SDS011;149;51.094;17.002;2022-10-22T07:34:05;20.80;;;15.07;;
323;SDS011;149;51.094;17.002;2022-10-22T07:36:34;22.23;;;16.02;;
323;SDS011;149;51.094;17.002;2022-10-22T07:39:03;20.80;;;14.57;;
323;SDS011;149;51.094;17.002;2022-10-22T07:41:32;20.52;;;15.77;;
323;SDS011;149;51.094;17.002;2022-10-22T07:43:59;25.38;;;16.25;;
323;SDS011;149;51.094;17.002;2022-10-22T07:46:28;27.77;;;17.23;;
323;SDS011;149;51.094;17.002;2022-10-22T07:48:56;28.33;;;18.30;;
323;SDS011;149;51.094;17.002;2022-10-22T07:51:23;23.23;;;17.45;;
323;SDS011;149;51.094;17.002;2022-10-22T07:53:53;24.10;;;16.10;;
323;SDS011;149;51.094;17.002;2022-10-22T07:56:21;22.55;;;15.90;;
323;SDS011;149;51.094;17.002;2022-10-22T07:58:49;21.83;;;17.23;;
323;SDS011;149;51.094;17.002;2022-10-22T08:01:16;16.92;;;13.75;;
323;SDS011;149;51.094;17.002;2022-10-22T08:03:52;21.80;;;13.60;;
323;SDS011;149;51.094;17.002;2022-10-22T08:06:22;15.43;;;13.80;;
323;SDS011;149;51.094;17.002;2022-10-22T08:08:51;16.52;;;14.73;;
323;SDS011;149;51.094;17.002;2022-10-22T08:13:55;15.88;;;12.52;;
323;SDS011;149;51.094;17.002;2022-10-22T08:38:04;12.23;;;9.80;;
323;SDS011;149;51.094;17.002;2022-10-22T09:12:50;24.23;;;14.77;;
323;SDS011;149;51.094;17.002;2022-10-22T09:15:22;23.00;;;14.17;;
323;SDS011;149;51.094;17.002;2022-10-22T09:26:23;18.33;;;14.37;;
323;SDS011;149;51.094;17.002;2022-10-22T09:37:26;16.47;;;12.63;;
323;SDS011;149;51.094;17.002;2022-10-22T09:40:03;24.07;;;14.70;;
323;SDS011;149;51.094;17.002;2022-10-22T09:48:10;24.00;;;13.83;;
323;SDS011;149;51.094;17.002;2022-10-22T10:01:22;21.87;;;13.03;;
323;SDS011;149;51.094;17.002;2022-10-22T10:09:20;17.30;;;12.43;;
323;SDS011;149;51.094;17.002;2022-10-22T10:12:04;19.07;;;13.33;;
323;SDS011;149;51.094;17.002;2022-10-22T10:14:53;19.30;;;13.00;;
323;SDS011;149;51.094;17.002;2022-10-22T10:23:31;25.60;;;15.37;;
323;SDS011;149;51.094;17.002;2022-10-22T10:26:29;18.40;;;13.93;;
323;SDS011;149;51.094;17.002;2022-10-22T10:32:06;21.00;;;14.93;;
323;SDS011;149;51.094;17.002;2022-10-22T10:40:10;22.87;;;14.57;;
323;SDS011;149;51.094;17.002;2022-10-22T10:43:19;17.40;;;14.67;;
323;SDS011;149;51.094;17.002;2022-10-22T10:51:48;22.50;;;14.93;;
323;SDS011;149;51.094;17.002;2022-10-22T10:54:44;23.27;;;15.80;;
323;SDS011;149;51.094;17.002;2022-10-22T11:00:26;23.93;;;17.40;;
323;SDS011;149;51.094;17.002;2022-10-22T11:06:22;26.10;;;17.53;;
323;SDS011;149;51.094;17.002;2022-10-22T11:08:58;21.40;;;17.60;;
323;SDS011;149;51.094;17.002;2022-10-22T11:11:42;28.07;;;17.23;;
323;SDS011;149;51.094;17.002;2022-10-22T11:17:49;22.80;;;16.40;;
323;SDS011;149;51.094;17.002;2022-10-22T11:20:23;22.03;;;15.50;;
323;SDS011;149;51.094;17.002;2022-10-22T11:23:13;21.20;;;14.90;;
323;SDS011;149;51.094;17.002;2022-10-22T11:25:56;20.30;;;15.70;;
323;SDS011;149;51.094;17.002;2022-10-22T11:28:36;22.77;;;15.10;;
323;SDS011;149;51.094;17.002;2022-10-22T11:31:16;22.23;;;14.90;;
323;SDS011;149;51.094;17.002;2022-10-22T11:33:47;22.30;;;14.13;;
323;SDS011;149;51.094;17.002;2022-10-22T11:36:30;20.00;;;14.37;;
323;SDS011;149;51.094;17.002;2022-10-22T11:38:58;20.30;;;13.40;;
323;SDS011;149;51.094;17.002;2022-10-22T11:41:29;18.70;;;14.90;;
323;SDS011;149;51.094;17.002;2022-10-22T11:44:20;17.57;;;14.30;;
323;SDS011;149;51.094;17.002;2022-10-22T11:49:26;18.50;;;12.83;;
323;SDS011;149;51.094;17.002;2022-10-22T11:55:26;18.50;;;11.87;;
323;SDS011;149;51.094;17.002;2022-10-22T11:58:45;15.40;;;12.40;;
323;SDS011;149;51.094;17.002;2022-10-22T12:01:27;18.37;;;12.70;;
323;SDS011;149;51.094;17.002;2022-10-22T12:09:56;12.50;;;9.10;;
323;SDS011;149;51.094;17.002;2022-10-22T12:12:23;12.63;;;9.80;;
323;SDS011;149;51.094;17.002;2022-10-22T12:14:56;14.50;;;11.07;;
323;SDS011;149;51.094;17.002;2022-10-22T12:17:26;13.63;;;11.00;;
323;SDS011;149;51.094;17.002;2022-10-22T12:20:04;13.47;;;9.00;;
323;SDS011;149;51.094;17.002;2022-10-22T12:22:37;11.47;;;9.00;;
323;SDS011;149;51.094;17.002;2022-10-22T12:25:11;10.33;;;8.30;;
323;SDS011;149;51.094;17.002;2022-10-22T12:27:48;10.63;;;8.20;;
323;SDS011;149;51.094;17.002;2022-10-22T12:30:24;12.73;;;8.30;;
323;SDS011;149;51.094;17.002;2022-10-22T12:32:55;9.43;;;7.53;;
323;SDS011;149;51.094;17.002;2022-10-22T12:35:28;9.53;;;7.97;;
323;SDS011;149;51.094;17.002;2022-10-22T12:38:01;9.30;;;8.40;;
323;SDS011;149;51.094;17.002;2022-10-22T12:40:39;13.00;;;8.10;;
323;SDS011;149;51.094;17.002;2022-10-22T12:43:14;8.77;;;7.90;;
323;SDS011;149;51.094;17.002;2022-10-22T12:45:46;10.43;;;8.33;;
323;SDS011;149;51.094;17.002;2022-10-22T12:48:31;10.63;;;8.47;;
323;SDS011;149;51.094;17.002;2022-10-22T12:51:06;11.63;;;9.27;;
323;SDS011;149;51.094;17.002;2022-10-22T12:53:44;10.50;;;7.90;;
323;SDS011;149;51.094;17.002;2022-10-22T12:56:28;9.30;;;7.10;;
323;SDS011;149;51.094;17.002;2022-10-22T12:59:04;9.17;;;8.23;;
323;SDS011;149;51.094;17.002;2022-10-22T13:01:54;10.20;;;8.47;;
323;SDS011;149;51.094;17.002;2022-10-22T13:12:57;14.70;;;9.73;;
323;SDS011;149;51.094;17.002;2022-10-22T13:23:50;12.37;;;10.03;;
323;SDS011;149;51.094;17.002;2022-10-22T13:26:29;11.50;;;10.17;;
323;SDS011;149;51.094;17.002;2022-10-22T13:29:09;13.77;;;11.17;;
323;SDS011;149;51.094;17.002;2022-10-22T13:31:43;14.63;;;11.27;;
323;SDS011;149;51.094;17.002;2022-10-22T13:34:17;16.53;;;9.47;;
323;SDS011;149;51.094;17.002;2022-10-22T13:36:51;11.37;;;10.10;;
323;SDS011;149;51.094;17.002;2022-10-22T13:39:20;11.90;;;10.30;;
323;SDS011;149;51.094;17.002;2022-10-22T13:41:51;13.27;;;10.50;;
323;SDS011;149;51.094;17.002;2022-10-22T13:44:22;17.20;;;13.67;;
323;SDS011;149;51.094;17.002;2022-10-22T13:46:51;15.13;;;11.70;;
323;SDS011;149;51.094;17.002;2022-10-22T13:49:19;13.97;;;10.93;;
323;SDS011;149;51.094;17.002;2022-10-22T13:51:50;12.80;;;10.63;;
323;SDS011;149;51.094;17.002;2022-10-22T13:54:20;10.10;;;8.87;;
323;SDS011;149;51.094;17.002;2022-10-22T13:56:49;14.68;;;10.75;;
323;SDS011;149;51.094;17.002;2022-10-22T13:59:18;9.70;;;8.80;;
323;SDS011;149;51.094;17.002;2022-10-22T14:01:50;15.07;;;12.03;;
323;SDS011;149;51.094;17.002;2022-10-22T14:04:21;13.53;;;10.80;;
323;SDS011;149;51.094;17.002;2022-10-22T14:06:48;15.40;;;12.97;;
323;SDS011;149;51.094;17.002;2022-10-22T14:09:29;18.43;;;12.70;;
323;SDS011;149;51.094;17.002;2022-10-22T14:11:57;14.13;;;10.93;;
323;SDS011;149;51.094;17.002;2022-10-22T14:14:24;14.70;;;11.20;;
323;SDS011;149;51.094;17.002;2022-10-22T14:16:51;16.67;;;12.37;;
323;SDS011;149;51.094;17.002;2022-10-22T14:22:03;20.10;;;13.40;;
323;SDS011;149;51.094;17.002;2022-10-22T14:24:30;15.77;;;13.83;;
323;SDS011;149;51.094;17.002;2022-10-22T14:26:59;16.53;;;12.20;;
323;SDS011;149;51.094;17.002;2022-10-22T14:29:27;18.27;;;12.20;;
323;SDS011;149;51.094;17.002;2022-10-22T14:31:56;15.10;;;11.73;;
323;SDS011;149;51.094;17.002;2022-10-22T14:34:25;17.90;;;11.60;;
323;SDS011;149;51.094;17.002;2022-10-22T14:36:53;19.63;;;13.60;;
323;SDS011;149;51.094;17.002;2022-10-22T14:39:22;19.00;;;13.30;;
323;SDS011;149;51.094;17.002;2022-10-22T14:41:49;18.40;;;14.33;;
323;SDS011;149;51.094;17.002;2022-10-22T14:44:18;15.37;;;12.73;;
323;SDS011;149;51.094;17.002;2022-10-22T14:46:46;20.00;;;13.93;;
323;SDS011;149;51.094;17.002;2022-10-22T14:49:16;16.33;;;13.17;;
323;SDS011;149;51.094;17.002;2022-10-22T14:51:45;17.60;;;12.53;;
323;SDS011;149;51.094;17.002;2022-10-22T14:54:16;19.43;;;13.07;;
323;SDS011;149;51.094;17.002;2022-10-22T14:56:46;23.23;;;14.47;;
323;SDS011;149;51.094;17.002;2022-10-22T14:59:17;18.63;;;13.30;;
323;SDS011;149;51.094;17.002;2022-10-22T15:01:45;17.13;;;13.70;;
323;SDS011;149;51.094;17.002;2022-10-22T15:04:16;14.40;;;12.57;;
323;SDS011;149;51.094;17.002;2022-10-22T15:06:46;16.90;;;14.00;;
323;SDS011;149;51.094;17.002;2022-10-22T15:09:16;13.00;;;11.13;;
323;SDS011;149;51.094;17.002;2022-10-22T15:11:57;12.10;;;10.83;;
323;SDS011;149;51.094;17.002;2022-10-22T15:14:26;12.20;;;10.67;;
323;SDS011;149;51.094;17.002;2022-10-22T15:17:08;14.63;;;11.63;;
323;SDS011;149;51.094;17.002;2022-10-22T15:19:41;12.60;;;11.33;;
323;SDS011;149;51.094;17.002;2022-10-22T15:22:11;13.43;;;11.90;;
323;SDS011;149;51.094;17.002;2022-10-22T15:24:44;14.40;;;12.30;;
323;SDS011;149;51.094;17.002;2022-10-22T15:27:17;14.33;;;11.50;;
323;SDS011;149;51.094;17.002;2022-10-22T15:29:45;13.57;;;11.03;;
323;SDS011;149;51.094;17.002;2022-10-22T15:32:38;13.40;;;11.18;;
323;SDS011;149;51.094;17.002;2022-10-22T15:35:48;15.25;;;12.60;;
323;SDS011;149;51.094;17.002;2022-10-22T15:38:20;14.55;;;12.75;;
323;SDS011;149;51.094;17.002;2022-10-22T15:40:48;15.15;;;12.10;;
323;SDS011;149;51.094;17.002;2022-10-22T15:43:15;15.77;;;11.85;;
323;SDS011;149;51.094;17.002;2022-10-22T15:45:47;17.20;;;12.80;;
323;SDS011;149;51.094;17.002;2022-10-22T15:48:35;16.10;;;11.90;;
323;SDS011;149;51.094;17.002;2022-10-22T15:51:06;16.15;;;11.93;;
323;SDS011;149;51.094;17.002;2022-10-22T15:53:43;15.98;;;12.05;;
323;SDS011;149;51.094;17.002;2022-10-22T15:56:24;22.73;;;15.77;;
323;SDS011;149;51.094;17.002;2022-10-22T15:58:58;18.08;;;13.82;;
323;SDS011;149;51.094;17.002;2022-10-22T16:01:29;22.40;;;16.70;;
323;SDS011;149;51.094;17.002;2022-10-22T16:04:00;21.33;;;17.07;;
323;SDS011;149;51.094;17.002;2022-10-22T16:06:40;25.77;;;18.60;;
323;SDS011;149;51.094;17.002;2022-10-22T16:09:13;23.20;;;17.83;;
323;SDS011;149;51.094;17.002;2022-10-22T16:11:44;21.15;;;16.50;;
323;SDS011;149;51.094;17.002;2022-10-22T16:14:14;24.15;;;17.80;;
323;SDS011;149;51.094;17.002;2022-10-22T16:16:46;23.67;;;17.02;;
323;SDS011;149;51.094;17.002;2022-10-22T16:19:16;24.13;;;19.08;;
323;SDS011;149;51.094;17.002;2022-10-22T16:21:51;31.50;;;21.37;;
323;SDS011;149;51.094;17.002;2022-10-22T16:24:29;27.75;;;19.25;;
323;SDS011;149;51.094;17.002;2022-10-22T16:27:00;23.90;;;20.63;;
323;SDS011;149;51.094;17.002;2022-10-22T16:29:41;27.00;;;20.53;;
323;SDS011;149;51.094;17.002;2022-10-22T16:32:10;28.02;;;21.13;;
323;SDS011;149;51.094;17.002;2022-10-22T16:34:45;39.05;;;23.67;;
323;SDS011;149;51.094;17.002;2022-10-22T16:37:13;31.52;;;22.50;;
323;SDS011;149;51.094;17.002;2022-10-22T16:42:17;31.27;;;22.63;;
323;SDS011;149;51.094;17.002;2022-10-22T16:45:14;27.40;;;20.70;;
323;SDS011;149;51.094;17.002;2022-10-22T16:47:45;31.00;;;22.80;;
323;SDS011;149;51.094;17.002;2022-10-22T16:50:15;31.03;;;22.07;;
323;SDS011;149;51.094;17.002;2022-10-22T16:52:45;27.02;;;18.67;;
323;SDS011;149;51.094;17.002;2022-10-22T16:55:14;21.33;;;18.00;;
323;SDS011;149;51.094;17.002;2022-10-22T16:57:42;21.50;;;17.87;;
323;SDS011;149;51.094;17.002;2022-10-22T17:00:17;25.20;;;17.80;;
323;SDS011;149;51.094;17.002;2022-10-22T17:02:53;24.63;;;17.20;;
323;SDS011;149;51.094;17.002;2022-10-22T17:05:34;22.53;;;18.33;;
323;SDS011;149;51.094;17.002;2022-10-22T17:08:02;21.60;;;18.30;;
323;SDS011;149;51.094;17.002;2022-10-22T17:10:46;23.07;;;19.10;;
323;SDS011;149;51.094;17.002;2022-10-22T17:13:17;26.03;;;16.70;;
323;SDS011;149;51.094;17.002;2022-10-22T17:15:50;29.10;;;19.23;;
323;SDS011;149;51.094;17.002;2022-10-22T17:18:17;25.27;;;18.57;;
323;SDS011;149;51.094;17.002;2022-10-22T17:20:45;24.15;;;15.98;;
323;SDS011;149;51.094;17.002;2022-10-22T17:23:13;24.50;;;18.03;;
323;SDS011;149;51.094;17.002;2022-10-22T17:25:47;23.83;;;17.73;;
323;SDS011;149;51.094;17.002;2022-10-22T17:28:16;21.47;;;14.97;;
323;SDS011;149;51.094;17.002;2022-10-22T17:30:45;26.03;;;18.10;;
323;SDS011;149;51.094;17.002;2022-10-22T17:33:13;27.63;;;18.27;;
323;SDS011;149;51.094;17.002;2022-10-22T17:35:43;20.43;;;17.10;;
323;SDS011;149;51.094;17.002;2022-10-22T17:38:11;26.63;;;18.10;;
323;SDS011;149;51.094;17.002;2022-10-22T17:40:38;25.47;;;20.20;;
323;SDS011;149;51.094;17.002;2022-10-22T17:43:09;27.53;;;19.13;;
323;SDS011;149;51.094;17.002;2022-10-22T17:45:41;18.40;;;15.30;;
323;SDS011;149;51.094;17.002;2022-10-22T17:48:14;28.30;;;20.50;;
323;SDS011;149;51.094;17.002;2022-10-22T17:50:42;22.17;;;18.80;;
323;SDS011;149;51.094;17.002;2022-10-22T17:53:16;21.48;;;16.92;;
323;SDS011;149;51.094;17.002;2022-10-22T17:55:44;25.03;;;19.83;;
323;SDS011;149;51.094;17.002;2022-10-22T17:58:13;24.77;;;19.20;;
323;SDS011;149;51.094;17.002;2022-10-22T18:00:41;29.65;;;22.60;;
323;SDS011;149;51.094;17.002;2022-10-22T18:03:09;22.47;;;18.70;;
323;SDS011;149;51.094;17.002;2022-10-22T18:05:37;25.83;;;18.60;;
323;SDS011;149;51.094;17.002;2022-10-22T18:08:07;23.27;;;18.43;;
323;SDS011;149;51.094;17.002;2022-10-22T18:10:37;23.90;;;16.63;;
323;SDS011;149;51.094;17.002;2022-10-22T18:13:05;22.13;;;15.97;;
323;SDS011;149;51.094;17.002;2022-10-22T18:15:34;18.40;;;15.57;;
323;SDS011;149;51.094;17.002;2022-10-22T18:18:02;18.10;;;15.17;;
323;SDS011;149;51.094;17.002;2022-10-22T18:20:31;26.13;;;19.97;;
323;SDS011;149;51.094;17.002;2022-10-22T18:22:59;18.50;;;16.07;;
323;SDS011;149;51.094;17.002;2022-10-22T18:25:33;18.40;;;14.50;;
323;SDS011;149;51.094;17.002;2022-10-22T18:28:11;21.57;;;14.83;;
323;SDS011;149;51.094;17.002;2022-10-22T18:30:42;15.95;;;13.15;;
323;SDS011;149;51.094;17.002;2022-10-22T18:33:14;16.90;;;14.73;;
323;SDS011;149;51.094;17.002;2022-10-22T18:35:44;17.57;;;14.00;;
323;SDS011;149;51.094;17.002;2022-10-22T18:38:35;16.60;;;13.80;;
323;SDS011;149;51.094;17.002;2022-10-22T18:41:08;21.13;;;13.53;;
323;SDS011;149;51.094;17.002;2022-10-22T18:43:40;15.37;;;13.20;;
323;SDS011;149;51.094;17.002;2022-10-22T18:46:19;20.93;;;12.47;;
323;SDS011;149;51.094;17.002;2022-10-22T18:48:46;14.77;;;11.30;;
323;SDS011;149;51.094;17.002;2022-10-22T18:51:15;14.88;;;13.20;;
323;SDS011;149;51.094;17.002;2022-10-22T18:53:48;19.50;;;11.90;;